aviador You're here:

MMMX Decoded Metar

MEXICO CITY in MEXICO
Report Time2017-08-23 03:47:00
UTC Time2017-08-23 04:07:47
Flight Rules vfr VFR
Wind040° at 07 kt
W.Decomp.*RWY 05: 6.7 kt HW 1.9 kt LCW
W.Rank040° ranks 6
Current wind is below 040° avg. (7.2)
Visibility9999 m
Phenomena:N/A
Clouds:Scattered 080 Hf
Expected CloudBase > 2,800 ft AGL from Temp-Dew spread
CeilingNone
Temp18°C (ISA +18)
Dew Point11°C (64% RH)
AAT15.8°C
QNH1029 hPa
Density Alt9,029 ft
Elevation7,343 ft
Report Wrong Elevation
Raw Report
MMMX 230347Z 04007KT 12SM SCT080 18/11 A3038 NOSIG RMK 8/070=

Extra information for MMMX:More info

Metar Taf Metar & Taf Last 4 Metars F.Rules Stats Wind Profile Meteogram Temp Stats Airport Information Weather charts Add Link Nearby VenuesMetar ALERT Operation Metar Decoded Social comments